createdAt,value
2022-11-13T00:01:11.462Z,3.42
2022-11-13T00:03:58.255Z,3.39
2022-11-13T00:06:44.086Z,3.38
2022-11-13T00:09:29.875Z,3.34
2022-11-13T00:12:15.857Z,3.32
2022-11-13T00:15:01.615Z,3.30
2022-11-13T00:17:47.225Z,3.29
2022-11-13T00:20:32.730Z,3.28
2022-11-13T00:23:18.364Z,3.26
2022-11-13T00:26:04.946Z,3.23
2022-11-13T00:28:54.768Z,3.21
2022-11-13T00:31:40.230Z,3.20
2022-11-13T00:34:46.566Z,3.23
2022-11-13T00:37:31.346Z,3.20
2022-11-13T00:40:16.948Z,3.21
2022-11-13T00:43:02.508Z,3.18
2022-11-13T00:45:48.003Z,3.18
2022-11-13T00:48:33.866Z,3.16
2022-11-13T00:51:19.673Z,3.14
2022-11-13T00:54:05.342Z,3.15
2022-11-13T00:56:51.109Z,3.16
2022-11-13T00:59:36.770Z,3.12
2022-11-13T01:02:22.405Z,3.11
2022-11-13T01:05:08.479Z,3.15
2022-11-13T01:07:54.265Z,3.12
2022-11-13T01:10:53.101Z,3.11
2022-11-13T01:13:40.438Z,3.11
2022-11-13T01:16:27.272Z,3.09
2022-11-13T01:19:13.010Z,3.07
2022-11-13T01:21:58.588Z,3.06
2022-11-13T01:24:44.601Z,3.11
2022-11-13T01:27:30.319Z,3.14
2022-11-13T01:30:15.962Z,3.12
2022-11-13T01:33:01.524Z,3.11
2022-11-13T01:35:46.917Z,3.05
2022-11-13T01:38:36.251Z,3.01
2022-11-13T01:41:27.970Z,2.98
2022-11-13T01:44:15.226Z,2.96
2022-11-13T01:47:00.586Z,2.97
2022-11-13T01:49:47.058Z,3.05
2022-11-13T01:52:35.582Z,3.07
2022-11-13T01:55:21.488Z,3.07
2022-11-13T01:58:08.920Z,3.03
2022-11-13T02:00:54.862Z,3.01
2022-11-13T02:03:40.690Z,3.01
2022-11-13T02:06:28.290Z,3.03
2022-11-13T02:09:15.114Z,3.04
2022-11-13T02:12:00.961Z,3.00
2022-11-13T02:14:49.553Z,2.98
2022-11-13T02:17:42.266Z,2.92
2022-11-13T02:20:30.555Z,2.92
2022-11-13T02:23:19.213Z,2.89
2022-11-13T02:26:05.299Z,2.88
2022-11-13T02:28:50.817Z,2.87
2022-11-13T02:31:37.019Z,2.86
2022-11-13T02:34:22.440Z,2.87
2022-11-13T02:37:08.268Z,2.86
2022-11-13T02:39:54.099Z,2.88
2022-11-13T02:42:39.950Z,2.91
2022-11-13T02:45:25.649Z,2.93
2022-11-13T02:48:11.102Z,2.96
2022-11-13T02:50:56.854Z,2.95
2022-11-13T02:53:42.718Z,2.97
2022-11-13T02:56:28.305Z,2.99
2022-11-13T02:59:14.092Z,3.00
2022-11-13T03:01:59.429Z,3.02
2022-11-13T03:05:10.986Z,3.02
2022-11-13T03:07:51.736Z,3.00
2022-11-13T03:10:37.564Z,3.00
2022-11-13T03:13:23.283Z,3.01
2022-11-13T03:16:10.553Z,3.00
2022-11-13T03:18:56.908Z,3.01
2022-11-13T03:21:42.494Z,3.02
2022-11-13T03:24:28.064Z,3.01
2022-11-13T03:27:13.902Z,3.02
2022-11-13T03:29:59.432Z,3.01
2022-11-13T03:32:45.193Z,3.02
2022-11-13T03:35:34.861Z,3.05
2022-11-13T03:38:23.953Z,3.05
2022-11-13T03:41:09.669Z,3.11
2022-11-13T03:43:55.466Z,3.10
2022-11-13T03:46:41.004Z,3.09
2022-11-13T03:49:26.851Z,3.11
2022-11-13T03:52:12.299Z,3.12
2022-11-13T03:54:57.612Z,3.11
2022-11-13T03:57:43.244Z,3.16
2022-11-13T04:00:30.157Z,3.09
2022-11-13T04:03:15.817Z,3.06
2022-11-13T04:06:01.631Z,3.04
2022-11-13T04:08:47.340Z,3.02
2022-11-13T04:11:33.247Z,3.00
2022-11-13T04:14:18.991Z,2.96
2022-11-13T04:17:04.805Z,2.96
2022-11-13T04:19:50.559Z,2.92
2022-11-13T04:22:36.036Z,2.92
2022-11-13T04:25:21.949Z,2.90
2022-11-13T04:28:08.663Z,2.88
2022-11-13T04:30:54.895Z,2.85
2022-11-13T04:33:40.491Z,2.84
2022-11-13T04:36:26.179Z,2.83
2022-11-13T04:39:11.826Z,2.81
2022-11-13T04:42:16.297Z,2.81
2022-11-13T04:45:02.302Z,2.78
2022-11-13T04:47:48.456Z,2.76
2022-11-13T04:50:33.953Z,2.78
2022-11-13T04:53:19.769Z,2.77
2022-11-13T04:56:05.641Z,2.83
2022-11-13T04:58:51.352Z,2.86
2022-11-13T05:01:37.227Z,2.87
2022-11-13T05:04:22.894Z,2.87
2022-11-13T05:07:08.405Z,2.85
2022-11-13T05:09:53.926Z,2.85
2022-11-13T05:12:39.610Z,2.81
2022-11-13T05:15:25.599Z,2.82
2022-11-13T05:18:11.399Z,2.85
2022-11-13T05:20:57.210Z,2.83
2022-11-13T05:23:43.034Z,2.85
2022-11-13T05:26:29.212Z,2.81
2022-11-13T05:29:14.674Z,2.77
2022-11-13T05:32:00.315Z,2.71
2022-11-13T05:34:46.073Z,2.72
2022-11-13T05:37:32.073Z,2.67
2022-11-13T05:40:17.818Z,2.67
2022-11-13T05:43:03.522Z,2.67
2022-11-13T05:45:49.103Z,2.60
2022-11-13T05:48:35.031Z,2.68
2022-11-13T05:51:22.318Z,2.65
2022-11-13T05:54:07.788Z,2.60
2022-11-13T05:56:53.460Z,2.59
2022-11-13T05:59:39.296Z,2.66
2022-11-13T06:02:25.135Z,2.66
2022-11-13T06:05:10.922Z,2.68
2022-11-13T06:07:56.719Z,2.63
2022-11-13T06:10:42.295Z,2.61
2022-11-13T06:13:28.797Z,2.65
2022-11-13T06:16:15.602Z,2.69
2022-11-13T06:19:02.183Z,2.67
2022-11-13T06:21:48.068Z,2.65
2022-11-13T06:24:33.806Z,2.60
2022-11-13T06:27:19.278Z,2.58
2022-11-13T06:30:05.341Z,2.59
2022-11-13T06:32:54.095Z,2.63
2022-11-13T06:35:39.992Z,2.56
2022-11-13T06:38:25.591Z,2.58
2022-11-13T06:41:13.420Z,2.56
2022-11-13T06:44:02.946Z,2.56
2022-11-13T06:46:49.015Z,2.60
2022-11-13T06:49:34.631Z,2.66
2022-11-13T06:52:20.570Z,2.66
2022-11-13T06:55:06.099Z,2.68
2022-11-13T06:57:51.702Z,2.78
2022-11-13T07:00:39.971Z,2.92
2022-11-13T07:03:26.756Z,3.00
2022-11-13T07:06:16.930Z,3.18
2022-11-13T07:09:02.425Z,3.31
2022-11-13T07:11:48.227Z,3.41
2022-11-13T07:14:33.837Z,3.45
2022-11-13T07:17:19.537Z,3.55
2022-11-13T07:20:05.463Z,3.63
2022-11-13T07:22:51.049Z,3.74
2022-11-13T07:25:36.869Z,3.83
2022-11-13T07:28:22.515Z,3.93
2022-11-13T07:31:09.486Z,4.14
2022-11-13T07:33:55.082Z,4.22
2022-11-13T07:36:40.610Z,4.32
2022-11-13T07:39:26.390Z,4.45
2022-11-13T07:42:11.967Z,4.53
2022-11-13T07:44:59.941Z,4.60
2022-11-13T07:47:45.734Z,4.63
2022-11-13T07:50:32.648Z,4.82
2022-11-13T07:53:18.624Z,5.00
2022-11-13T07:56:04.484Z,5.00
2022-11-13T07:58:49.916Z,5.08
2022-11-13T08:01:36.100Z,5.18
2022-11-13T08:04:21.749Z,5.25
2022-11-13T08:07:08.125Z,5.29
2022-11-13T08:09:53.824Z,5.44
2022-11-13T08:12:39.535Z,5.56
2022-11-13T08:15:25.438Z,5.71
2022-11-13T08:18:11.281Z,5.66
2022-11-13T08:20:57.226Z,5.83
2022-11-13T08:23:42.780Z,6.05
2022-11-13T08:26:28.280Z,6.24
2022-11-13T08:29:14.128Z,6.31
2022-11-13T08:31:59.941Z,6.48
2022-11-13T08:34:45.573Z,6.60
2022-11-13T08:37:32.396Z,6.72
2022-11-13T08:40:17.803Z,6.66
2022-11-13T08:43:04.258Z,6.78
2022-11-13T08:45:49.960Z,6.79
2022-11-13T08:48:35.839Z,6.91
2022-11-13T08:51:21.755Z,6.91
2022-11-13T08:54:07.665Z,6.87
2022-11-13T08:56:57.194Z,6.85
2022-11-13T08:59:44.321Z,6.97
2022-11-13T09:02:30.214Z,7.08
2022-11-13T09:05:15.505Z,6.99
2022-11-13T09:08:01.462Z,6.99
2022-11-13T09:10:47.333Z,7.13
2022-11-13T09:13:33.677Z,7.20
2022-11-13T09:16:19.637Z,7.42
2022-11-13T09:19:05.105Z,7.48
2022-11-13T09:21:51.569Z,7.64
2022-11-13T09:24:37.484Z,7.64
2022-11-13T09:27:23.025Z,7.60
2022-11-13T09:30:09.347Z,7.77
2022-11-13T09:32:59.207Z,7.83
2022-11-13T09:35:44.943Z,7.92
2022-11-13T09:38:32.133Z,8.00
2022-11-13T09:41:20.688Z,8.03
2022-11-13T09:44:13.507Z,8.15
2022-11-13T09:47:06.349Z,8.17
2022-11-13T09:49:54.707Z,8.18
2022-11-13T09:52:41.710Z,8.26
2022-11-13T09:55:36.833Z,8.27
2022-11-13T09:58:39.738Z,8.38
2022-11-13T10:01:45.496Z,8.32
2022-11-13T10:04:37.194Z,8.45
2022-11-13T10:07:31.009Z,8.34
2022-11-13T10:10:31.990Z,8.37
2022-11-13T10:13:37.795Z,8.56
2022-11-13T10:16:42.079Z,8.67
2022-11-13T10:19:40.225Z,8.82
2022-11-13T10:22:38.167Z,8.83
2022-11-13T10:25:25.885Z,8.88
2022-11-13T10:28:35.380Z,8.84
2022-11-13T10:31:20.266Z,8.80
2022-11-13T10:34:06.654Z,9.03
2022-11-13T10:37:02.287Z,9.10
2022-11-13T10:39:47.918Z,9.16
2022-11-13T10:42:41.042Z,9.22
2022-11-13T10:45:26.723Z,9.18
2022-11-13T10:48:22.783Z,9.18
2022-11-13T10:51:23.482Z,9.33
2022-11-13T10:54:23.370Z,9.24
2022-11-13T10:57:28.108Z,9.32
2022-11-13T11:00:41.471Z,9.48
2022-11-13T11:03:27.223Z,9.40
2022-11-13T11:06:12.843Z,9.54
2022-11-13T11:09:18.666Z,9.66
2022-11-13T11:12:16.515Z,9.65
2022-11-13T11:15:19.925Z,9.63
2022-11-13T11:18:10.209Z,9.56
2022-11-13T11:20:59.662Z,9.82
2022-11-13T11:23:53.282Z,9.87
2022-11-13T11:26:43.779Z,9.86
2022-11-13T11:29:35.099Z,10.00
2022-11-13T11:32:50.154Z,9.85
2022-11-13T11:35:42.029Z,9.90
2022-11-13T11:38:39.459Z,10.06
2022-11-13T11:41:51.552Z,10.12
2022-11-13T11:44:52.388Z,10.01
2022-11-13T11:47:38.047Z,10.19
2022-11-13T11:50:44.175Z,10.16
2022-11-13T11:53:48.255Z,10.28
2022-11-13T11:56:36.022Z,10.21
2022-11-13T11:59:25.176Z,10.30
2022-11-13T12:02:29.854Z,10.25
2022-11-13T12:05:23.182Z,10.34
2022-11-13T12:08:15.169Z,10.32
2022-11-13T12:11:05.257Z,10.46
2022-11-13T12:14:09.877Z,10.41
2022-11-13T12:17:17.330Z,10.25
2022-11-13T12:20:21.059Z,10.36
2022-11-13T12:23:23.570Z,10.41
2022-11-13T12:26:08.975Z,10.41
2022-11-13T12:29:04.329Z,10.39
2022-11-13T12:31:52.887Z,10.04
2022-11-13T12:34:44.700Z,10.26
2022-11-13T12:37:53.584Z,10.33
2022-11-13T12:40:45.499Z,10.30
2022-11-13T12:43:31.100Z,10.33
2022-11-13T12:46:16.874Z,10.29
2022-11-13T12:49:02.794Z,10.31
2022-11-13T12:52:17.645Z,10.33
2022-11-13T12:55:04.659Z,10.27
2022-11-13T12:57:50.124Z,10.26
2022-11-13T13:00:37.448Z,10.01
2022-11-13T13:03:22.945Z,10.08
2022-11-13T13:06:14.235Z,10.21
2022-11-13T13:09:08.280Z,10.23
2022-11-13T13:12:14.529Z,10.19
2022-11-13T13:15:19.069Z,10.11
2022-11-13T13:18:06.575Z,10.12
2022-11-13T13:20:58.308Z,10.05
2022-11-13T13:23:48.580Z,10.01
2022-11-13T13:26:43.965Z,9.93
2022-11-13T13:29:30.407Z,9.81
2022-11-13T13:32:23.490Z,9.87
2022-11-13T13:35:15.400Z,9.97
2022-11-13T13:38:13.030Z,9.96
2022-11-13T13:41:09.528Z,9.94
2022-11-13T13:44:03.506Z,9.85
2022-11-13T13:46:49.656Z,9.76
2022-11-13T13:49:35.683Z,9.71
2022-11-13T13:52:26.713Z,9.83
2022-11-13T13:55:28.297Z,9.89
2022-11-13T13:58:15.705Z,9.63
2022-11-13T14:01:18.415Z,9.77
2022-11-13T14:04:11.027Z,9.85
2022-11-13T14:06:58.187Z,9.75
2022-11-13T14:09:43.909Z,9.74
2022-11-13T14:12:29.597Z,9.70
2022-11-13T14:15:41.584Z,9.49
2022-11-13T14:18:27.474Z,9.54
2022-11-13T14:21:22.096Z,9.55
2022-11-13T14:24:14.063Z,9.42
2022-11-13T14:27:02.732Z,9.42
2022-11-13T14:29:53.604Z,9.44
2022-11-13T14:32:45.636Z,9.36
2022-11-13T14:35:33.157Z,9.26
2022-11-13T14:38:20.975Z,9.30
2022-11-13T14:41:07.230Z,9.29
2022-11-13T14:43:54.328Z,9.24
2022-11-13T14:46:45.449Z,9.15
2022-11-13T14:49:33.148Z,9.06
2022-11-13T14:52:22.839Z,9.07
2022-11-13T14:55:40.255Z,9.04
2022-11-13T14:58:27.595Z,8.97
2022-11-13T15:01:17.031Z,8.95
2022-11-13T15:04:03.254Z,8.91
2022-11-13T15:06:50.863Z,8.81
2022-11-13T15:09:37.001Z,8.89
2022-11-13T15:12:22.683Z,8.80
2022-11-13T15:15:13.406Z,8.69
2022-11-13T15:17:59.162Z,8.60
2022-11-13T15:20:45.314Z,8.56
2022-11-13T15:23:31.305Z,8.52
2022-11-13T15:26:17.480Z,8.47
2022-11-13T15:29:03.668Z,8.47
2022-11-13T15:31:49.123Z,8.36
2022-11-13T15:34:34.914Z,8.34
2022-11-13T15:37:20.642Z,8.32
2022-11-13T15:40:06.577Z,8.21
2022-11-13T15:42:52.090Z,8.19
2022-11-13T15:45:42.809Z,8.15
2022-11-13T15:48:30.160Z,8.09
2022-11-13T15:51:18.613Z,8.00
2022-11-13T15:54:15.790Z,7.93
2022-11-13T15:57:01.808Z,7.88
2022-11-13T15:59:47.531Z,7.83
2022-11-13T16:02:35.388Z,7.78
2022-11-13T16:05:23.839Z,7.73
2022-11-13T16:08:13.374Z,7.68
2022-11-13T16:10:59.085Z,7.62
2022-11-13T16:13:44.876Z,7.56
2022-11-13T16:16:33.947Z,7.56
2022-11-13T16:19:23.221Z,7.47
2022-11-13T16:22:18.276Z,7.36
2022-11-13T16:25:03.912Z,7.34
2022-11-13T16:27:49.553Z,7.22
2022-11-13T16:30:35.114Z,7.18
2022-11-13T16:33:20.692Z,7.11
2022-11-13T16:36:13.664Z,6.91
2022-11-13T16:38:59.415Z,6.76
2022-11-13T16:41:46.444Z,6.69
2022-11-13T16:44:32.332Z,6.62
2022-11-13T16:47:21.699Z,6.56
2022-11-13T16:50:14.912Z,6.54
2022-11-13T16:53:01.220Z,6.45
2022-11-13T16:55:46.658Z,6.36
2022-11-13T16:58:32.409Z,6.28
2022-11-13T17:01:19.133Z,6.19
2022-11-13T17:04:05.692Z,6.15
2022-11-13T17:06:55.330Z,6.17
2022-11-13T17:09:45.659Z,6.09
2022-11-13T17:12:31.385Z,6.00
2022-11-13T17:15:16.913Z,5.96
2022-11-13T17:18:02.952Z,5.96
2022-11-13T17:20:52.198Z,5.82
2022-11-13T17:23:37.899Z,5.75
2022-11-13T17:26:24.380Z,5.77
2022-11-13T17:29:09.963Z,5.71
2022-11-13T17:31:55.652Z,5.63
2022-11-13T17:34:43.337Z,5.63
2022-11-13T17:37:28.881Z,5.48
2022-11-13T17:40:14.457Z,5.48
2022-11-13T17:43:00.262Z,5.50
2022-11-13T17:45:52.288Z,5.36
2022-11-13T17:48:38.264Z,5.32
2022-11-13T17:51:23.819Z,5.29
2022-11-13T17:54:09.560Z,5.21
2022-11-13T17:56:55.223Z,5.23
2022-11-13T17:59:41.359Z,5.14
2022-11-13T18:02:27.302Z,5.07
2022-11-13T18:05:13.186Z,4.97
2022-11-13T18:07:58.996Z,4.97
2022-11-13T18:10:44.814Z,4.98
2022-11-13T18:13:31.382Z,4.95
2022-11-13T18:16:19.169Z,4.91
2022-11-13T18:19:08.293Z,4.83
2022-11-13T18:21:54.707Z,4.83
2022-11-13T18:24:40.483Z,4.76
2022-11-13T18:27:26.031Z,4.85
2022-11-13T18:30:11.988Z,4.71
2022-11-13T18:32:57.474Z,4.68
2022-11-13T18:35:43.247Z,4.70
2022-11-13T18:38:28.881Z,4.64
2022-11-13T18:41:18.418Z,4.64
2022-11-13T18:44:03.893Z,4.62
2022-11-13T18:46:49.689Z,4.63
2022-11-13T18:49:35.105Z,4.54
2022-11-13T18:52:20.837Z,4.52
2022-11-13T18:55:07.112Z,4.50
2022-11-13T18:57:52.563Z,4.40
2022-11-13T19:00:38.508Z,4.47
2022-11-13T19:03:24.226Z,4.49
2022-11-13T19:06:11.609Z,4.53
2022-11-13T19:08:58.467Z,4.43
2022-11-13T19:11:44.679Z,4.31
2022-11-13T19:14:30.412Z,4.30
2022-11-13T19:17:16.204Z,4.37
2022-11-13T19:20:01.729Z,4.29
2022-11-13T19:22:47.387Z,4.20
2022-11-13T19:25:33.049Z,4.19
2022-11-13T19:28:18.586Z,4.25
2022-11-13T19:31:08.307Z,4.21
2022-11-13T19:34:00.862Z,4.19
2022-11-13T19:36:49.413Z,4.16
2022-11-13T19:39:35.579Z,4.16
2022-11-13T19:42:20.994Z,4.15
2022-11-13T19:45:06.998Z,4.15
2022-11-13T19:47:52.396Z,4.19
2022-11-13T19:50:38.196Z,4.20
2022-11-13T19:53:23.903Z,4.24
2022-11-13T19:56:09.683Z,4.24
2022-11-13T19:58:56.198Z,4.21
2022-11-13T20:01:41.989Z,4.19
2022-11-13T20:04:27.711Z,4.13
2022-11-13T20:07:13.506Z,4.08
2022-11-13T20:09:59.369Z,4.10
2022-11-13T20:12:46.288Z,4.10
2022-11-13T20:15:32.434Z,4.11
2022-11-13T20:18:18.175Z,4.04
2022-11-13T20:21:04.086Z,4.03
2022-11-13T20:23:49.746Z,4.05
2022-11-13T20:26:35.614Z,3.98
2022-11-13T20:29:21.305Z,3.98
2022-11-13T20:32:07.051Z,3.94
2022-11-13T20:34:53.007Z,3.90
2022-11-13T20:37:38.400Z,3.90
2022-11-13T20:40:24.076Z,3.90
2022-11-13T20:43:09.540Z,3.88
2022-11-13T20:46:02.304Z,3.90
2022-11-13T20:48:47.779Z,3.88
2022-11-13T20:51:33.540Z,3.88
2022-11-13T20:54:19.333Z,3.91
2022-11-13T20:57:05.155Z,3.91
2022-11-13T20:59:51.300Z,3.94
2022-11-13T21:02:36.971Z,3.97
2022-11-13T21:05:22.810Z,4.04
2022-11-13T21:08:11.450Z,4.03
2022-11-13T21:10:59.264Z,4.06
2022-11-13T21:13:45.492Z,4.06
2022-11-13T21:16:31.768Z,4.07
2022-11-13T21:19:17.251Z,4.07
2022-11-13T21:22:02.908Z,4.03
2022-11-13T21:24:48.478Z,4.09
2022-11-13T21:27:33.900Z,4.21
2022-11-13T21:30:19.544Z,4.24
2022-11-13T21:33:05.274Z,4.25
2022-11-13T21:35:51.147Z,4.15
2022-11-13T21:38:36.918Z,4.19
2022-11-13T21:41:26.808Z,4.22
2022-11-13T21:44:12.780Z,4.25
2022-11-13T21:46:58.423Z,4.25
2022-11-13T21:49:44.218Z,4.30
2022-11-13T21:52:30.390Z,4.27
2022-11-13T21:55:16.177Z,4.23
2022-11-13T21:58:01.692Z,4.20
2022-11-13T22:00:47.586Z,4.18
2022-11-13T22:03:33.466Z,4.12
2022-11-13T22:06:19.042Z,4.08
2022-11-13T22:09:07.971Z,4.14
2022-11-13T22:11:54.546Z,4.15
2022-11-13T22:14:39.987Z,4.14
2022-11-13T22:17:25.716Z,4.17
2022-11-13T22:20:11.709Z,4.22
2022-11-13T22:22:57.459Z,4.29
2022-11-13T22:25:42.974Z,4.38
2022-11-13T22:28:29.323Z,4.39
2022-11-13T22:31:19.515Z,4.40
2022-11-13T22:34:05.143Z,4.44
2022-11-13T22:36:50.849Z,4.52
2022-11-13T22:39:36.499Z,4.53
2022-11-13T22:42:21.991Z,4.48
2022-11-13T22:45:22.917Z,4.44
2022-11-13T22:48:10.123Z,4.44
2022-11-13T22:50:55.914Z,4.43
2022-11-13T22:53:42.292Z,4.43
2022-11-13T22:56:29.640Z,4.35
2022-11-13T22:59:15.213Z,4.36
2022-11-13T23:02:01.167Z,4.34
2022-11-13T23:04:46.799Z,4.28
2022-11-13T23:07:32.596Z,4.31
2022-11-13T23:10:18.598Z,4.36
2022-11-13T23:13:04.139Z,4.38
2022-11-13T23:15:49.925Z,4.38
2022-11-13T23:18:35.599Z,4.41
2022-11-13T23:21:21.622Z,4.46
2022-11-13T23:24:07.662Z,4.50
2022-11-13T23:26:53.154Z,4.50
2022-11-13T23:29:38.824Z,4.45
2022-11-13T23:32:24.509Z,4.45
2022-11-13T23:35:10.428Z,4.41
2022-11-13T23:37:56.095Z,4.39
2022-11-13T23:40:41.767Z,4.43
2022-11-13T23:43:53.909Z,4.47
2022-11-13T23:46:34.285Z,4.43
2022-11-13T23:49:20.031Z,4.37
2022-11-13T23:52:05.511Z,4.41
2022-11-13T23:54:51.335Z,4.44
2022-11-13T23:57:37.134Z,4.35
